Time;durP1;ratioP1;P1;durP2;ratioP2;P2;SDS_P1;SDS_P2;PMS_P1;PMS_P2;Temp;Humidity;BMP_temperature;BMP_pressure;BME280_temperature;BME280_humidity;BME280_pressure;Samples;Min_cycle;Max_cycle;Signal;HPM_P1;HPM_P2
2023/02/10 00:00:46;;;;;;;140.00;60.90;;;;;;;-9.97;100.00;99736.59;52545;1256;1018439;-78
2023/02/10 00:03:24;;;;;;;150.30;56.40;;;;;;;-9.96;100.00;99738.98;52489;1254;1075533;-78
2023/02/10 00:05:50;;;;;;;131.40;55.00;;;;;;;-10.05;100.00;99744.35;52522;1254;1016545;-77
2023/02/10 00:08:17;;;;;;;152.30;56.50;;;;;;;-10.14;100.00;99739.05;52503;1254;1071553;-78
2023/02/10 00:10:44;;;;;;;151.10;60.80;;;;;;;-10.20;100.00;99731.45;52524;1253;1018907;-76
2023/02/10 00:13:10;;;;;;;153.50;56.10;;;;;;;-10.25;100.00;99726.58;52526;1256;1073743;-78
2023/02/10 00:15:37;;;;;;;139.40;57.40;;;;;;;-10.33;100.00;99725.36;52480;1256;1015927;-77
2023/02/10 00:18:03;;;;;;;158.60;59.50;;;;;;;-10.32;100.00;99718.18;52487;1256;1051433;-76
2023/02/10 00:20:30;;;;;;;112.70;48.20;;;;;;;-10.41;100.00;99723.30;52533;1253;1016355;-76
2023/02/10 00:22:56;;;;;;;150.30;50.30;;;;;;;-10.46;100.00;99724.53;52416;1252;1058740;-76
2023/02/10 00:25:23;;;;;;;65.40;30.50;;;;;;;-10.44;100.00;99726.64;52438;1254;1015986;-78
2023/02/10 00:27:50;;;;;;;125.30;47.20;;;;;;;-10.49;100.00;99719.13;52522;1252;1072704;-78
2023/02/10 00:30:16;;;;;;;83.00;42.80;;;;;;;-10.50;100.00;99721.34;52543;1256;1015656;-78
2023/02/10 00:32:43;;;;;;;60.00;31.50;;;;;;;-10.38;100.00;99715.58;52512;1254;1070036;-78
2023/02/10 00:35:09;;;;;;;130.50;54.50;;;;;;;-10.24;100.00;99714.65;52595;1256;1016337;-78
2023/02/10 00:37:36;;;;;;;104.40;42.30;;;;;;;-10.37;100.00;99719.92;52519;1256;1070350;-78
2023/02/10 00:40:03;;;;;;;178.30;62.30;;;;;;;-10.56;100.00;99723.48;52519;1255;1015990;-76
2023/02/10 00:42:29;;;;;;;157.70;59.10;;;;;;;-10.65;100.00;99716.08;52498;1257;1051317;-78
2023/02/10 00:44:56;;;;;;;158.90;59.00;;;;;;;-10.65;100.00;99724.05;52514;1252;1016288;-76
2023/02/10 00:47:25;;;;;;;132.70;51.60;;;;;;;-10.71;100.00;99735.52;52401;1258;1057974;-78
2023/02/10 00:49:52;;;;;;;126.60;50.10;;;;;;;-10.71;100.00;99737.39;52539;1254;1016369;-77
2023/02/10 00:52:19;;;;;;;154.10;57.20;;;;;;;-10.72;100.00;99741.17;52514;1257;1015362;-77
2023/02/10 00:54:45;;;;;;;128.70;49.90;;;;;;;-10.72;100.00;99735.94;52512;1254;1072636;-76
2023/02/10 00:57:12;;;;;;;129.10;50.90;;;;;;;-10.74;100.00;99733.61;52538;1257;1015781;-76
2023/02/10 00:59:38;;;;;;;143.40;50.50;;;;;;;-10.74;100.00;99730.99;52528;1254;1068975;-77
2023/02/10 01:02:06;;;;;;;147.80;55.50;;;;;;;-10.78;100.00;99728.47;52500;1252;1019805;-76
2023/02/10 01:04:33;;;;;;;120.80;49.60;;;;;;;-10.80;100.00;99727.02;52496;1253;1070750;-77
2023/02/10 01:06:59;;;;;;;126.90;46.80;;;;;;;-10.79;100.00;99718.55;52502;1252;1016341;-78
2023/02/10 01:09:26;;;;;;;113.90;46.90;;;;;;;-10.73;100.00;99726.88;52522;1256;1054105;-77
2023/02/10 01:11:52;;;;;;;117.70;46.50;;;;;;;-10.68;100.00;99733.36;52525;1254;1015718;-76
2023/02/10 01:14:19;;;;;;;95.60;39.20;;;;;;;-10.65;100.00;99728.77;52536;1254;1060985;-78
2023/02/10 01:16:45;;;;;;;95.50;40.30;;;;;;;-10.66;100.00;99730.60;52503;1254;1015836;-76
2023/02/10 01:19:12;;;;;;;106.00;39.20;;;;;;;-10.61;100.00;99731.83;52516;1254;1072261;-76
2023/02/10 01:21:38;;;;;;;103.70;38.50;;;;;;;-10.61;100.00;99732.33;52517;1254;1015518;-76
2023/02/10 01:24:05;;;;;;;104.00;38.70;;;;;;;-10.59;100.00;99730.17;52366;1259;1068099;-76
2023/02/10 01:26:32;;;;;;;112.30;43.00;;;;;;;-10.65;100.00;99726.90;52527;1254;1016269;-77
2023/02/10 01:28:59;;;;;;;87.60;36.80;;;;;;;-10.70;100.00;99723.70;52466;1254;1073499;-78
2023/02/10 01:31:26;;;;;;;107.50;35.90;;;;;;;-10.75;100.00;99720.05;52517;1254;1016542;-77
2023/02/10 01:33:53;;;;;;;81.00;31.20;;;;;;;-10.93;100.00;99709.91;52487;1257;1051605;-78
2023/02/10 01:36:22;;;;;;;113.50;41.30;;;;;;;-11.07;100.00;99706.17;52484;1254;1016173;-76
2023/02/10 01:38:49;;;;;;;104.00;40.30;;;;;;;-11.04;100.00;99700.39;52528;1253;1058056;-77
2023/02/10 01:41:17;;;;;;;36.40;17.40;;;;;;;-11.02;100.00;99690.30;52509;1254;1018472;-76
2023/02/10 01:44:18;;;;;;;100.10;39.20;;;;;;;-11.04;100.00;99686.77;52534;1254;1073275;-76
2023/02/10 01:46:45;;;;;;;82.10;31.00;;;;;;;-11.09;100.00;99680.79;52460;1254;1076301;-78
2023/02/10 01:49:14;;;;;;;72.20;28.40;;;;;;;-11.09;100.00;99673.31;52459;1254;1016085;-77
2023/02/10 01:51:42;;;;;;;79.40;32.70;;;;;;;-11.11;100.00;99668.84;52508;1254;1071952;-78
2023/02/10 01:54:12;;;;;;;93.30;35.30;;;;;;;-11.12;100.00;99656.55;52491;1253;1016450;-78
2023/02/10 01:56:40;;;;;;;92.00;32.90;;;;;;;-11.11;100.00;99650.57;52452;1256;1016024;-76
2023/02/10 01:59:07;;;;;;;88.40;35.90;;;;;;;-11.14;100.00;99656.45;52436;1256;1016472;-76
2023/02/10 02:01:34;;;;;;;91.00;34.50;;;;;;;-11.13;100.00;99658.36;52425;1256;1073109;-76
2023/02/10 02:04:00;;;;;;;74.00;32.00;;;;;;;-11.09;100.00;99666.34;52432;1256;1015811;-76
2023/02/10 02:06:27;;;;;;;51.60;23.60;;;;;;;-10.99;100.00;99674.91;52355;1259;1051278;-77
2023/02/10 02:08:53;;;;;;;66.00;28.40;;;;;;;-10.89;100.00;99675.42;52420;1253;1016447;-76
2023/02/10 02:11:21;;;;;;;65.50;26.00;;;;;;;-10.78;100.00;99668.93;52406;1257;1061128;-77
2023/02/10 02:14:07;;;;;;;55.80;22.70;;;;;;;-10.68;100.00;99662.32;52375;1254;1016039;-76
2023/02/10 02:16:51;;;;;;;60.90;25.60;;;;;;;-10.66;100.00;99657.08;52444;1257;1075657;-77
2023/02/10 02:19:31;;;;;;;69.20;22.90;;;;;;;-10.63;100.00;99657.59;52472;1253;1075124;-76
2023/02/10 02:22:19;;;;;;;68.60;28.60;;;;;;;-10.66;100.00;99662.16;52465;1254;1075639;-76
2023/02/10 02:25:01;;;;;;;70.60;27.60;;;;;;;-10.66;100.00;99662.70;52464;1254;1072627;-75
2023/02/10 02:27:55;;;;;;;62.40;24.80;;;;;;;-10.67;100.00;99650.69;52534;1254;1075922;-77
2023/02/10 02:30:39;;;;;;;56.60;23.90;;;;;;;-10.63;100.00;99652.35;52493;1253;1075399;-75
2023/02/10 02:33:14;;;;;;;70.20;28.80;;;;;;;-10.59;100.00;99646.46;52477;1256;1073358;-77
2023/02/10 02:35:44;;;;;;;82.10;29.90;;;;;;;-10.52;100.00;99649.98;52544;1254;1075532;-77
2023/02/10 02:38:11;;;;;;;68.40;25.40;;;;;;;-10.41;100.00;99637.16;52517;1254;1016398;-76
2023/02/10 02:40:37;;;;;;;65.30;29.20;;;;;;;-10.34;100.00;99639.79;52467;1251;1016257;-77
2023/02/10 02:43:04;;;;;;;69.70;26.10;;;;;;;-10.30;100.00;99635.02;52496;1257;1073760;-75
2023/02/10 02:45:52;;;;;;;76.10;28.50;;;;;;;-10.37;100.00;99635.98;52477;1251;1016040;-77
2023/02/10 02:48:26;;;;;;;51.50;21.40;;;;;;;-10.40;100.00;99640.08;52538;1255;1070918;-78
2023/02/10 02:50:52;;;;;;;58.20;26.00;;;;;;;-10.35;100.00;99641.28;52441;1251;1073555;-76
2023/02/10 02:53:39;;;;;;;56.70;23.30;;;;;;;-10.29;100.00;99644.38;52494;1251;1016265;-76
2023/02/10 02:56:42;;;;;;;61.20;21.60;;;;;;;-10.26;100.00;99650.92;52453;1251;1051886;-77
2023/02/10 02:59:25;;;;;;;48.60;20.10;;;;;;;-10.20;100.00;99652.77;52522;1251;1053656;-79
2023/02/10 03:01:56;;;;;;;42.50;17.30;;;;;;;-10.14;100.00;99651.67;52502;1252;1053816;-77
2023/02/10 03:04:23;;;;;;;50.50;21.10;;;;;;;-10.08;100.00;99652.07;52550;1251;1050770;-78
2023/02/10 03:06:49;;;;;;;51.40;18.90;;;;;;;-10.05;100.00;99649.59;52424;1251;1016315;-79
2023/02/10 03:09:16;;;;;;;50.50;21.10;;;;;;;-10.05;100.00;99651.20;52538;1251;1059981;-78
2023/02/10 03:11:42;;;;;;;44.40;20.30;;;;;;;-10.06;100.00;99654.08;52546;1251;1016399;-77
2023/02/10 03:14:09;;;;;;;55.40;23.50;;;;;;;-10.12;100.00;99650.63;52534;1257;1075208;-79
2023/02/10 03:16:35;;;;;;;46.90;23.20;;;;;;;-10.21;100.00;99645.55;52500;1255;1016398;-79
2023/02/10 03:19:02;;;;;;;53.20;21.10;;;;;;;-10.32;100.00;99647.34;52542;1254;1069734;-77
2023/02/10 03:21:29;;;;;;;47.00;20.50;;;;;;;-10.35;100.00;99653.31;52569;1251;1016384;-77
2023/02/10 03:23:55;;;;;;;45.70;19.80;;;;;;;-10.33;100.00;99653.59;52497;1256;1072027;-77
2023/02/10 03:26:22;;;;;;;54.20;21.60;;;;;;;-10.39;100.00;99659.27;52471;1251;1016991;-78
2023/02/10 03:28:48;;;;;;;45.00;17.00;;;;;;;-10.41;100.00;99666.55;52524;1257;1049685;-79
2023/02/10 03:31:15;;;;;;;49.40;20.30;;;;;;;-10.39;100.00;99662.94;52506;1257;1018233;-77
2023/02/10 03:33:42;;;;;;;43.50;18.00;;;;;;;-10.41;100.00;99662.69;52528;1251;1058670;-77
2023/02/10 03:36:08;;;;;;;35.20;13.60;;;;;;;-10.36;100.00;99664.42;52517;1251;1016264;-77
2023/02/10 03:38:35;;;;;;;48.90;18.50;;;;;;;-10.30;100.00;99658.07;52436;1256;1075253;-77
2023/02/10 03:41:02;;;;;;;44.40;19.20;;;;;;;-10.31;100.00;99663.21;52471;1251;1018473;-79
2023/02/10 03:43:28;;;;;;;45.10;18.00;;;;;;;-10.31;100.00;99662.14;52505;1251;1069631;-77
2023/02/10 03:45:59;;;;;;;48.80;16.50;;;;;;;-10.35;100.00;99667.48;52498;1256;1016138;-78
2023/02/10 03:48:30;;;;;;;39.40;16.20;;;;;;;-10.34;100.00;99663.05;52524;1257;1071549;-77
2023/02/10 03:50:58;;;;;;;43.40;17.40;;;;;;;-10.39;100.00;99660.77;52516;1257;1071121;-77
2023/02/10 03:53:25;;;;;;;54.10;22.80;;;;;;;-10.42;100.00;99665.55;52527;1251;1016512;-77
2023/02/10 03:55:52;;;;;;;41.10;16.80;;;;;;;-10.44;100.00;99669.03;52503;1257;1051157;-78
2023/02/10 03:58:18;;;;;;;52.60;19.30;;;;;;;-10.47;100.00;99667.64;52524;1255;1015956;-79
2023/02/10 04:00:45;;;;;;;40.20;16.10;;;;;;;-10.48;100.00;99675.77;52394;1251;1061197;-77
2023/02/10 04:03:12;;;;;;;45.90;19.40;;;;;;;-10.47;100.00;99677.40;52522;1251;1015947;-79
2023/02/10 04:05:38;;;;;;;38.60;15.30;;;;;;;-10.41;100.00;99678.58;52539;1254;1075460;-79
2023/02/10 04:08:05;;;;;;;38.10;16.40;;;;;;;-10.40;100.00;99673.98;52511;1256;1016128;-79
2023/02/10 04:10:32;;;;;;;51.70;17.50;;;;;;;-10.40;100.00;99666.65;52485;1251;1072118;-77
2023/02/10 04:12:58;;;;;;;41.60;18.40;;;;;;;-10.41;100.00;99665.17;52541;1251;1018489;-77
2023/02/10 04:15:25;;;;;;;49.40;17.80;;;;;;;-10.41;100.00;99664.42;52561;1255;1073443;-79
2023/02/10 04:17:51;;;;;;;48.70;17.70;;;;;;;-10.41;100.00;99657.23;52519;1255;1016855;-78
2023/02/10 04:20:18;;;;;;;47.30;18.00;;;;;;;-10.41;100.00;99661.45;52501;1254;1053419;-77
2023/02/10 04:22:44;;;;;;;44.60;20.40;;;;;;;-10.55;100.00;99672.39;52475;1251;1016364;-77
2023/02/10 04:25:11;;;;;;;56.00;23.20;;;;;;;-10.55;100.00;99679.58;52518;1256;1060977;-77
2023/02/10 04:27:38;;;;;;;51.90;22.30;;;;;;;-10.51;100.00;99678.57;52504;1254;1018764;-79
2023/02/10 04:30:05;;;;;;;12.10;8.40;;;;;;;-10.42;100.00;99671.30;52576;1251;1071903;-77
2023/02/10 04:32:31;;;;;;;52.50;23.00;;;;;;;-10.36;100.00;99670.15;52534;1255;1016488;-78
2023/02/10 04:34:58;;;;;;;59.90;26.10;;;;;;;-10.34;100.00;99670.41;52479;1256;1071693;-77
2023/02/10 04:37:25;;;;;;;47.60;19.50;;;;;;;-10.35;100.00;99674.45;52501;1252;1016357;-77
2023/02/10 04:39:51;;;;;;;54.80;22.70;;;;;;;-10.41;100.00;99680.00;52515;1251;1073103;-77
2023/02/10 04:42:18;;;;;;;49.30;20.30;;;;;;;-10.50;100.00;99682.39;52507;1251;1016295;-77
2023/02/10 04:44:44;;;;;;;44.10;20.60;;;;;;;-10.52;100.00;99684.95;52531;1251;1053189;-77
2023/02/10 04:47:11;;;;;;;50.30;20.30;;;;;;;-10.56;100.00;99691.28;52531;1256;1016545;-77
2023/02/10 04:49:38;;;;;;;60.90;23.50;;;;;;;-10.58;100.00;99688.68;52545;1251;1057697;-79
2023/02/10 04:52:04;;;;;;;46.90;18.70;;;;;;;-10.59;100.00;99689.60;52536;1251;1016021;-76
2023/02/10 04:54:31;;;;;;;59.20;24.00;;;;;;;-10.61;100.00;99687.31;52527;1254;1072640;-78
2023/02/10 04:56:57;;;;;;;49.50;19.60;;;;;;;-10.61;100.00;99687.10;52525;1256;1016584;-77
2023/02/10 04:59:24;;;;;;;63.70;25.00;;;;;;;-10.62;100.00;99689.32;52520;1251;1071901;-77
2023/02/10 05:01:51;;;;;;;61.60;24.80;;;;;;;-10.59;100.00;99690.48;52527;1256;1016408;-78
2023/02/10 05:04:17;;;;;;;55.10;23.70;;;;;;;-10.56;100.00;99692.73;52620;1256;1073057;-79
2023/02/10 05:06:44;;;;;;;66.80;26.50;;;;;;;-10.53;100.00;99695.14;52490;1251;1016467;-77
2023/02/10 05:09:10;;;;;;;51.00;23.60;;;;;;;-10.54;100.00;99696.26;52501;1257;1050494;-78
2023/02/10 05:11:37;;;;;;;58.00;25.50;;;;;;;-10.60;100.00;99697.68;52522;1256;1018538;-79
2023/02/10 05:14:04;;;;;;;67.90;26.50;;;;;;;-10.57;100.00;99711.34;52545;1257;1061111;-77
2023/02/10 05:16:30;;;;;;;57.50;26.00;;;;;;;-10.57;100.00;99706.06;52530;1257;1015515;-77
2023/02/10 05:18:57;;;;;;;61.20;22.60;;;;;;;-10.55;100.00;99706.42;52524;1251;1075335;-77
2023/02/10 05:21:23;;;;;;;58.10;22.80;;;;;;;-10.58;100.00;99700.56;52535;1257;1015858;-77
2023/02/10 05:23:50;;;;;;;63.60;24.40;;;;;;;-10.61;100.00;99703.52;52499;1251;1069293;-78
2023/02/10 05:26:16;;;;;;;75.40;26.00;;;;;;;-10.63;100.00;99711.37;52533;1256;1015906;-77
2023/02/10 05:28:43;;;;;;;63.50;25.50;;;;;;;-10.71;100.00;99715.10;52490;1251;1070985;-79
2023/02/10 05:31:10;;;;;;;61.60;27.10;;;;;;;-10.72;100.00;99716.52;52510;1256;1018646;-79
2023/02/10 05:33:36;;;;;;;60.60;27.90;;;;;;;-10.72;100.00;99719.30;52502;1251;1052090;-77
2023/02/10 05:36:03;;;;;;;67.60;27.90;;;;;;;-10.71;100.00;99722.25;52482;1251;1016433;-77
2023/02/10 05:38:30;;;;;;;58.80;24.20;;;;;;;-10.75;100.00;99720.73;52532;1251;1058409;-77
2023/02/10 05:40:57;;;;;;;66.70;25.40;;;;;;;-10.73;100.00;99720.64;52535;1251;1015986;-78
2023/02/10 05:43:23;;;;;;;65.10;27.30;;;;;;;-10.75;100.00;99729.34;52537;1256;1075092;-79
2023/02/10 05:45:50;;;;;;;56.60;24.40;;;;;;;-10.72;100.00;99729.10;52553;1251;1016187;-78
2023/02/10 05:48:16;;;;;;;66.50;26.00;;;;;;;-10.65;100.00;99734.89;52532;1251;1072448;-79
2023/02/10 05:50:43;;;;;;;61.80;24.60;;;;;;;-10.62;100.00;99737.13;52523;1253;1015735;-79
2023/02/10 05:53:09;;;;;;;60.90;25.90;;;;;;;-10.62;100.00;99739.96;52514;1257;1073506;-77
2023/02/10 05:55:36;;;;;;;68.00;28.50;;;;;;;-10.69;100.00;99738.35;52520;1256;1017945;-78
2023/02/10 05:58:02;;;;;;;66.90;29.10;;;;;;;-10.73;100.00;99745.63;52507;1257;1054565;-79
2023/02/10 06:00:29;;;;;;;69.00;29.60;;;;;;;-10.77;100.00;99750.03;52519;1251;1016117;-79
2023/02/10 06:02:56;;;;;;;60.30;24.80;;;;;;;-10.78;100.00;99746.24;52593;1251;1057908;-78
2023/02/10 06:05:23;;;;;;;63.10;26.20;;;;;;;-10.74;100.00;99747.44;52577;1251;1016007;-77
2023/02/10 06:07:49;;;;;;;57.30;26.90;;;;;;;-10.76;100.00;99738.80;52525;1252;1075352;-77
2023/02/10 06:10:16;;;;;;;70.70;32.90;;;;;;;-10.80;100.00;99733.30;52513;1251;1016181;-77
2023/02/10 06:12:43;;;;;;;67.00;25.30;;;;;;;-10.79;100.00;99736.40;52546;1251;1072270;-78
2023/02/10 06:15:09;;;;;;;59.80;25.00;;;;;;;-10.76;100.00;99736.39;52529;1251;1018026;-77
2023/02/10 06:17:36;;;;;;;53.80;21.80;;;;;;;-10.76;100.00;99739.19;52523;1252;1073742;-77
2023/02/10 06:20:03;;;;;;;54.80;23.20;;;;;;;-10.75;100.00;99735.12;52517;1257;1015557;-79
2023/02/10 06:22:29;;;;;;;58.90;24.80;;;;;;;-10.82;100.00;99732.71;52696;1251;1051281;-79
2023/02/10 06:24:56;;;;;;;77.10;29.70;;;;;;;-10.83;100.00;99737.16;52528;1251;1016410;-78
2023/02/10 06:27:23;;;;;;;61.00;26.40;;;;;;;-10.81;100.00;99739.31;52507;1251;1059895;-79
2023/02/10 06:29:49;;;;;;;69.70;30.90;;;;;;;-10.75;100.00;99740.88;52482;1252;1015700;-79
2023/02/10 06:32:16;;;;;;;52.20;20.00;;;;;;;-10.83;100.00;99747.63;52542;1251;1075838;-78
2023/02/10 06:34:45;;;;;;;67.00;30.40;;;;;;;-10.78;100.00;99750.63;52540;1257;1019313;-77
2023/02/10 06:37:11;;;;;;;51.10;25.30;;;;;;;-10.78;100.00;99748.52;52532;1251;1072836;-77
2023/02/10 06:39:38;;;;;;;68.20;29.30;;;;;;;-10.76;100.00;99748.77;52521;1257;1015816;-79
2023/02/10 06:42:05;;;;;;;85.00;34.30;;;;;;;-10.74;100.00;99748.16;52513;1256;1072296;-79
2023/02/10 06:44:32;;;;;;;70.80;32.30;;;;;;;-10.70;100.00;99749.77;52529;1257;1016356;-79
2023/02/10 06:46:58;;;;;;;84.70;39.00;;;;;;;-10.68;100.00;99753.10;52512;1256;1050689;-78
2023/02/10 06:49:25;;;;;;;83.80;39.40;;;;;;;-10.68;100.00;99752.92;52517;1257;1016022;-76
2023/02/10 06:51:51;;;;;;;80.90;37.90;;;;;;;-10.56;100.00;99757.38;52512;1251;1061027;-78
2023/02/10 06:54:18;;;;;;;87.30;37.10;;;;;;;-10.48;100.00;99753.37;52515;1251;1016432;-77
2023/02/10 06:56:45;;;;;;;68.70;31.60;;;;;;;-10.44;100.00;99756.55;52538;1252;1072284;-77
2023/02/10 06:59:13;;;;;;;80.20;32.10;;;;;;;-10.36;100.00;99749.03;52531;1256;1016061;-77
2023/02/10 07:01:39;;;;;;;69.70;34.00;;;;;;;-10.21;100.00;99749.02;52555;1252;1071351;-79
2023/02/10 07:04:06;;;;;;;81.40;34.30;;;;;;;-10.04;100.00;99753.71;52622;1251;1015787;-78
2023/02/10 07:06:33;;;;;;;73.80;34.50;;;;;;;-9.98;100.00;99753.45;52936;1254;1071156;-79
2023/02/10 07:08:59;;;;;;;103.60;48.70;;;;;;;-9.94;100.00;99754.59;52955;1254;1016135;-79
2023/02/10 07:11:26;;;;;;;100.60;45.40;;;;;;;-9.85;100.00;99759.60;52662;1256;1050778;-77
2023/02/10 07:13:52;;;;;;;108.30;48.00;;;;;;;-9.64;100.00;99760.21;52652;1257;1016066;-77
2023/02/10 07:16:19;;;;;;;102.40;48.30;;;;;;;-9.35;100.00;99756.71;52893;1251;1057874;-77
2023/02/10 07:18:45;;;;;;;106.70;46.10;;;;;;;-9.05;100.00;99756.38;53154;1253;1016216;-76
2023/02/10 07:21:12;;;;;;;117.20;56.90;;;;;;;-8.90;100.00;99754.61;53018;1251;1072732;-78
2023/02/10 07:23:39;;;;;;;129.50;54.70;;;;;;;-8.57;100.00;99755.98;52750;1257;1016039;-78
2023/02/10 07:26:06;;;;;;;116.80;49.20;;;;;;;-8.42;100.00;99762.02;53148;1257;1072031;-76
2023/02/10 07:28:32;;;;;;;116.90;53.80;;;;;;;-8.20;100.00;99764.16;53484;1256;1016233;-76
2023/02/10 07:30:59;;;;;;;160.10;74.90;;;;;;;-8.17;100.00;99763.71;52940;1256;1073629;-78
2023/02/10 07:33:28;;;;;;;141.00;62.50;;;;;;;-8.27;100.00;99766.26;52743;1251;1016254;-78
2023/02/10 07:35:58;;;;;;;132.20;59.90;;;;;;;-8.22;100.00;99768.37;52697;1251;1051101;-78
2023/02/10 07:38:25;;;;;;;156.40;64.30;;;;;;;-8.30;100.00;99769.30;52978;1256;1051703;-76
2023/02/10 07:40:52;;;;;;;139.40;61.10;;;;;;;-8.28;100.00;99770.16;53078;1252;1015890;-77
2023/02/10 07:43:18;;;;;;;145.40;59.10;;;;;;;-8.15;100.00;99761.85;52670;1251;1058790;-78
2023/02/10 07:45:45;;;;;;;129.90;57.60;;;;;;;-8.07;100.00;99758.23;52665;1257;1016463;-76
2023/02/10 07:48:11;;;;;;;148.60;63.20;;;;;;;-7.97;100.00;99759.56;54109;1256;1073565;-76
2023/02/10 07:50:38;;;;;;;133.10;60.50;;;;;;;-7.91;100.00;99759.28;53928;1251;1015525;-78
2023/02/10 07:53:04;;;;;;;136.90;59.80;;;;;;;-7.78;100.00;99761.85;52686;1257;1069947;-76
2023/02/10 07:55:31;;;;;;;156.10;73.50;;;;;;;-7.64;100.00;99767.49;52566;1257;1016424;-76
2023/02/10 07:57:58;;;;;;;163.90;73.00;;;;;;;-7.53;100.00;99767.78;53110;1251;1073274;-76
2023/02/10 08:00:24;;;;;;;147.00;64.10;;;;;;;-7.38;100.00;99771.73;53230;1252;1015985;-78
2023/02/10 08:02:51;;;;;;;140.20;65.20;;;;;;;-7.25;100.00;99772.36;53623;1251;1051187;-77
2023/02/10 08:05:18;;;;;;;135.40;60.50;;;;;;;-7.06;100.00;99774.73;52580;1256;1015743;-78
2023/02/10 08:07:44;;;;;;;130.50;59.90;;;;;;;-6.92;100.00;99775.49;52955;1251;1058859;-76
2023/02/10 08:10:11;;;;;;;194.10;94.80;;;;;;;-6.75;100.00;99772.72;52866;1251;1016230;-79
2023/02/10 08:12:38;;;;;;;147.50;65.80;;;;;;;-6.60;100.00;99778.26;52646;1251;1073259;-78
2023/02/10 08:15:06;;;;;;;124.90;58.50;;;;;;;-6.46;100.00;99777.18;53214;1256;1015838;-78
2023/02/10 08:17:32;;;;;;;132.40;52.40;;;;;;;-6.33;100.00;99775.48;53382;1251;1070976;-78
2023/02/10 08:19:59;;;;;;;128.60;59.10;;;;;;;-6.21;100.00;99782.23;52635;1251;1017425;-76
2023/02/10 08:22:26;;;;;;;155.30;65.20;;;;;;;-6.08;100.00;99777.02;52771;1258;1070312;-77
2023/02/10 08:24:52;;;;;;;147.20;66.40;;;;;;;-5.95;100.00;99773.80;52567;1257;1015857;-76
2023/02/10 08:27:19;;;;;;;145.50;65.20;;;;;;;-5.81;100.00;99773.98;52927;1255;1053371;-79
2023/02/10 08:29:45;;;;;;;138.40;63.30;;;;;;;-5.66;100.00;99774.31;52945;1251;1016126;-76
2023/02/10 08:32:18;;;;;;;144.80;63.80;;;;;;;-5.54;100.00;99766.20;52963;1251;1058356;-78
2023/02/10 08:34:46;;;;;;;140.00;65.10;;;;;;;-5.40;100.00;99767.58;52654;1257;1060676;-76
2023/02/10 08:37:13;;;;;;;127.70;57.70;;;;;;;-5.26;100.00;99769.34;53265;1251;1016043;-78
2023/02/10 08:39:40;;;;;;;111.00;49.80;;;;;;;-5.13;100.00;99767.48;53379;1251;1073291;-79
2023/02/10 08:42:06;;;;;;;128.60;55.30;;;;;;;-4.98;100.00;99773.00;53981;1252;1015926;-78
2023/02/10 08:44:33;;;;;;;163.20;66.00;;;;;;;-4.79;100.00;99772.16;54040;1251;1069234;-77
2023/02/10 08:46:59;;;;;;;223.90;108.00;;;;;;;-4.60;100.00;99780.60;53144;1256;1016126;-77
2023/02/10 08:49:27;;;;;;;135.80;62.40;;;;;;;-4.40;99.83;99778.23;53764;1254;1073429;-79
2023/02/10 08:51:54;;;;;;;110.60;53.40;;;;;;;-4.19;100.00;99778.45;53426;1252;1016112;-78
2023/02/10 08:54:21;;;;;;;104.90;46.50;;;;;;;-4.01;100.00;99777.80;52463;1254;1049856;-79
2023/02/10 08:56:47;;;;;;;79.00;38.20;;;;;;;-3.83;100.00;99783.20;53256;1256;1016177;-77
2023/02/10 08:59:14;;;;;;;72.50;35.60;;;;;;;-3.68;99.64;99784.38;53605;1253;1058403;-76
2023/02/10 09:01:41;;;;;;;72.30;34.30;;;;;;;-3.46;100.00;99788.45;53827;1254;1015864;-79
2023/02/10 09:04:08;;;;;;;63.60;33.20;;;;;;;-3.27;100.00;99782.35;53121;1252;1074925;-76
2023/02/10 09:06:41;;;;;;;59.40;30.30;;;;;;;-3.08;100.00;99786.58;52848;1254;1017024;-76
2023/02/10 09:09:14;;;;;;;78.70;36.10;;;;;;;-2.86;99.76;99784.34;52707;1260;1069399;-79
2023/02/10 09:11:41;;;;;;;87.90;37.70;;;;;;;-2.62;100.00;99784.15;53903;1254;1069889;-77
2023/02/10 09:14:08;;;;;;;85.40;33.20;;;;;;;-2.41;100.00;99778.61;53192;1257;1015702;-77
2023/02/10 09:16:35;;;;;;;71.60;33.30;;;;;;;-2.15;99.86;99777.44;52639;1251;1071227;-77
2023/02/10 09:19:01;;;;;;;54.80;26.70;;;;;;;-1.93;99.30;99771.29;53179;1257;1015785;-76
2023/02/10 09:21:28;;;;;;;49.50;22.00;;;;;;;-1.74;98.66;99764.89;52826;1256;1051085;-75
2023/02/10 09:23:55;;;;;;;53.40;24.20;;;;;;;-1.56;98.54;99772.41;52719;1257;1017980;-77
2023/02/10 09:26:21;;;;;;;33.00;13.50;;;;;;;-1.39;98.06;99772.30;52578;1264;1060763;-78
2023/02/10 09:28:48;;;;;;;27.60;14.80;;;;;;;-1.20;95.95;99772.25;52718;1251;1018699;-75
2023/02/10 09:31:15;;;;;;;26.50;14.10;;;;;;;-1.02;95.06;99779.39;53021;1256;1072630;-78
2023/02/10 09:33:43;;;;;;;27.10;16.20;;;;;;;-0.84;93.45;99778.09;52769;1256;1015876;-79
2023/02/10 09:36:13;;;;;;;24.00;12.00;;;;;;;-0.68;89.83;99773.22;52880;1257;1071313;-76
2023/02/10 09:38:39;;;;;;;24.20;11.80;;;;;;;-0.54;89.81;99772.40;52716;1256;1016014;-76
2023/02/10 09:41:38;;;;;;;24.70;13.40;;;;;;;-0.42;91.68;99771.23;52895;1256;1015732;-76
2023/02/10 09:44:26;;;;;;;24.50;10.30;;;;;;;-0.27;88.15;99777.34;52673;1254;1071278;-78
2023/02/10 09:47:17;;;;;;;25.20;11.50;;;;;;;-0.23;85.34;99777.73;53215;1251;1071487;-76
2023/02/10 09:50:08;;;;;;;24.50;12.90;;;;;;;-0.22;87.69;99776.73;54092;1251;1071463;-76
2023/02/10 09:52:56;;;;;;;22.10;11.60;;;;;;;-0.16;87.85;99775.02;54039;1251;1071554;-78
2023/02/10 09:55:38;;;;;;;22.90;13.90;;;;;;;-0.08;85.15;99770.85;54027;1251;1071572;-76
2023/02/10 09:58:34;;;;;;;25.70;11.60;;;;;;;0.01;86.07;99773.27;53891;1260;1063460;-78
2023/02/10 10:01:05;;;;;;;21.40;12.40;;;;;;;0.18;84.92;99763.63;54026;1251;1071117;-78
2023/02/10 10:03:45;;;;;;;22.80;12.90;;;;;;;0.26;84.25;99760.85;53696;1251;1070685;-76
2023/02/10 10:06:21;;;;;;;23.40;14.00;;;;;;;0.32;82.76;99757.23;53973;1257;1071642;-78
2023/02/10 10:08:55;;;;;;;21.70;10.50;;;;;;;0.38;82.82;99759.61;53257;1251;1071393;-76
2023/02/10 10:11:25;;;;;;;22.00;13.00;;;;;;;0.44;81.36;99757.63;53782;1251;1070940;-76
2023/02/10 10:13:53;;;;;;;24.70;12.10;;;;;;;0.51;81.40;99758.49;53045;1251;1017852;-77
2023/02/10 10:16:43;;;;;;;23.50;11.90;;;;;;;0.63;81.26;99763.35;53982;1251;1015453;-76
2023/02/10 10:19:33;;;;;;;22.80;12.30;;;;;;;0.72;80.39;99761.24;53612;1251;1051036;-76
2023/02/10 10:22:31;;;;;;;23.00;13.00;;;;;;;0.77;80.47;99759.91;53045;1251;1051005;-76
2023/02/10 10:25:35;;;;;;;23.80;12.10;;;;;;;0.84;80.20;99759.14;53251;1254;1053541;-76
2023/02/10 10:28:18;;;;;;;22.00;10.90;;;;;;;0.87;79.09;99757.98;54067;1257;1051412;-79
2023/02/10 10:30:52;;;;;;;27.00;13.00;;;;;;;0.91;79.99;99758.51;53058;1251;1051035;-79
2023/02/10 10:33:24;;;;;;;25.20;12.30;;;;;;;0.98;81.76;99757.73;52708;1258;1050636;-79
2023/02/10 10:35:51;;;;;;;23.90;13.90;;;;;;;1.05;79.75;99758.20;52652;1257;1050452;-76
2023/02/10 10:38:25;;;;;;;21.90;11.90;;;;;;;1.10;80.69;99757.89;53493;1251;1016338;-78
2023/02/10 10:40:53;;;;;;;21.60;10.70;;;;;;;1.16;78.95;99756.06;53306;1260;1059202;-79
2023/02/10 10:43:23;;;;;;;24.50;12.00;;;;;;;1.21;79.03;99756.35;53866;1251;1015963;-76
2023/02/10 10:45:52;;;;;;;20.30;11.40;;;;;;;1.26;77.60;99751.64;53137;1257;1016111;-79
2023/02/10 10:48:26;;;;;;;;;;;;;;;1.30;76.83;99745.98;53135;1251;1016955;-78
2023/02/10 10:50:55;;;;;;;25.00;12.50;;;;;;;1.39;77.48;99743.67;52947;1251;1057769;-79
2023/02/10 10:53:30;;;;;;;19.30;9.70;;;;;;;1.51;76.97;99741.75;52671;1251;1015966;-78
2023/02/10 10:55:57;;;;;;;22.80;12.10;;;;;;;1.67;76.22;99744.48;52634;1257;1061486;-77
2023/02/10 10:58:38;;;;;;;40.50;15.00;;;;;;;1.80;77.30;99748.47;53477;1251;1016307;-76